If you wish to contribute or participate in the discussions about articles you are invited to join SKYbrary as a registered user

 Actions

Aruba/Queen Beatrix International Airport

From SKYbrary Wiki

TNCA
Airport
ICAO: TNCA
Summary
Name Aruba/Queen Beatrix International Airport
Region South America and Caribbean
Territory Aruba AW.gif
Location Oranjestad, Aruba
Serving
Coordinates 12° 30' 5", -70° 0' 55.0001"
Close to Caribbean Sea
Runways
Designator Length Width Surface ROPS
11/29 2743 m8,999.344 ft 45 m147.638 ft ASP yes/yes
METAR
Observation TNCA 130600Z 10004KT 9999 FEW018 25/22 Q1012 NOSIG
Station Queen Beatrix Airport
Date/Time 13 December 2017 06:00:00
Wind direction 100°
Wind speed 04 kts
Lowest cloud amount few clouds
Temperature 25°C
Dew point 22°C
Humidity 83%
QNH 1012 hPa
Weather condition n/a

WX
Tag(s) Tropical Revolving Storm

Aruba/Queen Beatrix International Airport

ICAO: TNCA IATA: AUA

Description

International airport serving the island of Aruba in the Lesser Antilles, Caribbean. (Netherlands)

Climatology

Tropical Savanna climate (Köppen climate classification Aw), rarely affected directly by tropical storms as it is on the southern fringe of the Atlantic/Caribbean Hurricane Belt.

Maps

Terrain

Loading map...

Airport Layout

Loading map...


Accidents & Serious Incidents at or in vicinity of TNCA

None on SKYbrary